Time;durP1;ratioP1;P1;durP2;ratioP2;P2;SDS_P1;SDS_P2;PMS_P1;PMS_P2;Temp;Humidity;BMP_temperature;BMP_pressure;BME280_temperature;BME280_humidity;BME280_pressure;Samples;Min_cycle;Max_cycle;Signal;HPM_P1;HPM_P2
2022/08/11 00:00:42;;;;;;;7.63;3.78;;;25.90;60.20;;;;;;5027309;28;20026;-63
2022/08/11 00:03:10;;;;;;;8.50;3.72;;;25.90;60.20;;;;;;5029986;28;20029;-63
2022/08/11 00:05:47;;;;;;;7.15;3.33;;;25.90;60.20;;;;;;5026288;28;20024;-63
2022/08/11 00:08:26;;;;;;;10.68;3.60;;;25.90;60.10;;;;;;5009039;28;20410;-63
2022/08/11 00:11:01;;;;;;;8.55;3.47;;;25.90;60.10;;;;;;5033109;28;20029;-63
2022/08/11 00:13:41;;;;;;;10.07;3.83;;;25.90;60.10;;;;;;5039147;28;20057;-63
2022/08/11 00:16:27;;;;;;;8.20;3.53;;;25.90;60.20;;;;;;5009869;28;20386;-63
2022/08/11 00:18:54;;;;;;;8.82;3.58;;;25.80;60.00;;;;;;5025075;28;20037;-63
2022/08/11 00:21:20;;;;;;;7.60;3.42;;;25.90;60.10;;;;;;5025999;28;20039;-63
2022/08/11 00:23:57;;;;;;;7.75;3.40;;;25.90;60.00;;;;;;5024443;28;20034;-63
2022/08/11 00:26:23;;;;;;;8.38;3.58;;;25.80;59.80;;;;;;5020829;28;20030;-63
2022/08/11 00:28:50;;;;;;;7.85;3.33;;;25.80;59.80;;;;;;5049872;28;20088;-63
2022/08/11 00:31:34;;;;;;;6.72;3.38;;;25.80;59.80;;;;;;5026600;28;20389;-63
2022/08/11 00:34:00;;;;;;;9.23;3.78;;;25.80;59.80;;;;;;5021736;28;20057;-63
2022/08/11 00:36:41;;;;;;;7.57;3.50;;;25.80;60.20;;;;;;5050003;28;20049;-63
2022/08/11 00:39:07;;;;;;;5.65;3.20;;;25.80;59.80;;;;;;5025691;28;20125;-63
2022/08/11 00:42:05;;;;;;;7.35;3.50;;;25.80;59.80;;;;;;5025244;28;20123;-63
2022/08/11 00:44:55;;;;;;;8.15;3.47;;;25.80;59.80;;;;;;5022187;28;20053;-63
2022/08/11 00:47:30;;;;;;;7.75;3.40;;;25.80;59.70;;;;;;5026180;28;20549;-63
2022/08/11 00:50:17;;;;;;;8.88;3.33;;;25.80;59.80;;;;;;5025483;28;20513;-63
2022/08/11 00:53:20;;;;;;;6.68;3.40;;;25.80;59.70;;;;;;5025356;28;20037;-63
2022/08/11 00:56:07;;;;;;;8.82;3.42;;;25.80;59.80;;;;;;5025534;28;20529;-63
2022/08/11 00:58:50;;;;;;;7.45;3.38;;;25.80;59.80;;;;;;5023463;28;20028;-63
2022/08/11 01:01:16;;;;;;;7.43;3.47;;;25.80;59.80;;;;;;5026106;28;20498;-64
2022/08/11 01:03:59;;;;;;;6.95;2.95;;;25.80;59.80;;;;;;5025762;28;20026;-63
2022/08/11 01:06:40;;;;;;;7.10;3.35;;;25.80;59.70;;;;;;5047072;28;20025;-63
2022/08/11 01:09:20;;;;;;;6.78;3.10;;;25.70;59.80;;;;;;5048612;28;20044;-63
2022/08/11 01:12:43;;;;;;;5.32;3.15;;;25.80;59.80;;;;;;5024750;28;20024;-63
2022/08/11 01:15:27;;;;;;;6.75;3.10;;;25.80;59.90;;;;;;4981612;28;20026;-63
2022/08/11 01:18:08;;;;;;;;;;;25.70;59.80;;;;;;4983664;28;20035;-63
2022/08/11 01:20:54;;;;;;;7.43;3.67;;;25.70;59.80;;;;;;4981759;28;19914;-63
2022/08/11 01:23:32;;;;;;;6.22;3.15;;;25.70;59.80;;;;;;4986217;28;20532;-63
2022/08/11 01:26:28;;;;;;;6.45;3.13;;;25.70;59.80;;;;;;4987312;28;20038;-63
2022/08/11 01:29:30;;;;;;;7.32;3.33;;;25.70;59.70;;;;;;4994751;28;20061;-63
2022/08/11 01:32:14;;;;;;;6.70;3.40;;;25.70;59.80;;;;;;4984280;28;20041;-63
2022/08/11 01:35:07;;;;;;;7.40;2.92;;;25.70;59.80;;;;;;4987208;28;20034;-64
2022/08/11 01:37:39;;;;;;;7.35;3.47;;;25.70;59.80;;;;;;4985636;28;20030;-63
2022/08/11 01:40:39;;;;;;;7.30;3.50;;;25.70;59.80;;;;;;4988817;28;20035;-64
2022/08/11 01:46:12;;;;;;;7.53;2.93;;;25.60;59.70;;;;;;4971779;28;20069;-63
2022/08/11 01:49:02;;;;;;;6.13;3.10;;;25.70;59.70;;;;;;5003748;28;20311;-63
2022/08/11 01:51:37;;;;;;;6.00;2.90;;;25.60;59.70;;;;;;5010705;28;20029;-63
2022/08/11 01:54:12;;;;;;;7.60;3.38;;;25.70;59.70;;;;;;5027916;28;20032;-63
2022/08/11 01:56:47;;;;;;;6.60;3.00;;;25.60;59.70;;;;;;5028710;28;20730;-63
2022/08/11 01:59:18;;;;;;;7.30;3.35;;;25.60;59.70;;;;;;5055461;28;20029;-63
2022/08/11 02:01:59;;;;;;;6.35;3.30;;;25.60;59.60;;;;;;5029174;28;20026;-63
2022/08/11 02:04:31;;;;;;;7.15;3.42;;;25.60;59.50;;;;;;5028277;28;20451;-63
2022/08/11 02:07:20;;;;;;;6.90;3.38;;;25.60;59.50;;;;;;5031275;28;20024;-64
2022/08/11 02:13:15;;;;;;;6.07;2.90;;;25.60;59.60;;;;;;5025247;28;20160;-63
2022/08/11 02:15:46;;;;;;;6.25;2.95;;;25.60;59.50;;;;;;5035352;28;20026;-63
2022/08/11 02:18:22;;;;;;;5.60;2.60;;;25.60;59.60;;;;;;5060163;28;20025;-63
2022/08/11 02:24:13;;;;;;;7.30;3.20;;;25.60;59.50;;;;;;5028835;28;20060;-63
2022/08/11 02:26:41;;;;;;;7.00;3.70;;;25.60;59.50;;;;;;4987481;28;20669;-63
2022/08/11 02:29:36;;;;;;;5.90;2.90;;;25.60;59.50;;;;;;4992406;28;20053;-63
2022/08/11 02:35:15;;;;;;;6.38;3.20;;;25.60;59.70;;;;;;4992235;28;20564;-63
2022/08/11 02:38:11;;;;;;;5.28;2.92;;;25.60;59.70;;;;;;4980735;28;20033;-63
2022/08/11 02:40:40;;;;;;;6.57;2.90;;;25.60;59.50;;;;;;5000827;28;20033;-63
2022/08/11 02:43:14;;;;;;;8.15;3.40;;;25.60;59.60;;;;;;4997745;28;20129;-63
2022/08/11 02:45:58;;;;;;;6.57;3.22;;;25.60;59.60;;;;;;4998352;28;20422;-63
2022/08/11 02:51:53;;;;;;;6.22;2.97;;;25.50;59.60;;;;;;4989358;28;20064;-63
2022/08/11 02:54:45;;;;;;;6.20;3.00;;;25.50;59.60;;;;;;4993971;28;20041;-63
2022/08/11 02:57:24;;;;;;;6.47;3.10;;;25.50;59.60;;;;;;4989077;28;20484;-63
2022/08/11 02:59:54;;;;;;;6.10;3.22;;;25.50;59.60;;;;;;4979452;28;20894;-63
2022/08/11 03:02:33;;;;;;;7.65;3.50;;;25.50;59.50;;;;;;5000206;28;20033;-63
2022/08/11 03:04:59;;;;;;;6.65;3.08;;;25.50;59.50;;;;;;5049368;28;20072;-63
2022/08/11 03:07:27;;;;;;;5.65;2.90;;;25.50;59.60;;;;;;5028425;28;20073;-64
2022/08/11 03:10:02;;;;;;;5.65;3.10;;;25.50;59.50;;;;;;5028228;28;20083;-63
2022/08/11 03:18:23;;;;;;;5.30;2.90;;;25.50;59.60;;;;;;5019329;28;20500;-63
2022/08/11 03:21:05;;;;;;;6.43;3.20;;;25.50;59.50;;;;;;5027374;28;20449;-63
2022/08/11 03:23:48;;;;;;;6.18;3.17;;;25.40;59.40;;;;;;5024422;28;20021;-64
2022/08/11 03:26:37;;;;;;;5.63;2.92;;;25.40;59.40;;;;;;5027384;28;20144;-63
2022/08/11 03:29:33;;;;;;;5.85;2.75;;;25.50;59.50;;;;;;5048686;28;20099;-63
2022/08/11 03:32:08;;;;;;;5.63;3.00;;;25.40;59.30;;;;;;5024419;28;20029;-63
2022/08/11 03:34:36;;;;;;;5.82;3.20;;;25.40;59.40;;;;;;5027738;28;20029;-63
2022/08/11 03:37:47;;;;;;;7.32;3.30;;;25.40;59.30;;;;;;5027676;28;20037;-63
2022/08/11 03:41:41;;;;;;;5.93;3.08;;;25.40;59.40;;;;;;5024627;28;20062;-63
2022/08/11 03:43:06;;;;;;;6.72;3.00;;;25.40;59.40;;;;;;5021683;28;20125;-63
2022/08/11 03:45:56;;;;;;;6.57;3.08;;;25.40;59.50;;;;;;5025508;28;20030;-63
2022/08/11 03:48:53;;;;;;;6.15;2.83;;;25.40;59.40;;;;;;5024365;28;20092;-63
2022/08/11 03:51:42;;;;;;;5.60;2.80;;;25.40;59.40;;;;;;5032688;28;20024;-63
2022/08/11 03:54:27;;;;;;;5.72;3.10;;;25.40;59.40;;;;;;5045604;28;20430;-63
2022/08/11 03:57:02;;;;;;;;;;;25.40;59.40;;;;;;5026186;28;20038;-64
2022/08/11 04:00:09;;;;;;;5.93;2.85;;;25.40;59.30;;;;;;5024040;28;20296;-63
2022/08/11 04:02:59;;;;;;;5.38;2.80;;;25.40;59.30;;;;;;5006055;28;20088;-63
2022/08/11 04:06:02;;;;;;;5.20;2.85;;;25.40;59.40;;;;;;5012627;28;20034;-63
2022/08/11 04:08:53;;;;;;;5.65;2.85;;;25.40;59.30;;;;;;5011460;28;20608;-63
2022/08/11 04:11:59;;;;;;;5.80;3.00;;;25.30;59.30;;;;;;4965637;28;20045;-63
2022/08/11 04:18:03;;;;;;;6.07;2.90;;;25.40;59.30;;;;;;4946274;28;19918;-63
2022/08/11 04:21:06;;;;;;;5.10;2.80;;;25.40;59.50;;;;;;4947066;28;20039;-64
2022/08/11 04:24:03;;;;;;;5.35;2.95;;;25.30;59.30;;;;;;4947093;28;20046;-63
2022/08/11 04:26:50;;;;;;;5.63;2.72;;;25.40;59.40;;;;;;4947202;28;20865;-64
2022/08/11 04:29:33;;;;;;;4.97;2.70;;;25.30;59.30;;;;;;4946629;28;20054;-63
2022/08/11 04:32:20;;;;;;;5.22;2.80;;;25.30;59.60;;;;;;4944068;28;20022;-64
2022/08/11 04:35:14;;;;;;;5.38;2.60;;;25.30;59.50;;;;;;4948136;28;20537;-63
2022/08/11 04:37:53;;;;;;;5.82;2.90;;;25.30;59.50;;;;;;4983075;28;20098;-62
2022/08/11 04:40:37;;;;;;;4.57;2.88;;;25.30;59.30;;;;;;4970864;28;20128;-64
2022/08/11 04:43:36;;;;;;;5.75;2.90;;;25.30;59.30;;;;;;4985118;28;20550;-63
2022/08/11 04:46:27;;;;;;;4.65;2.72;;;25.30;59.40;;;;;;4967870;28;20044;-64
2022/08/11 05:02:34;;;;;;;13.60;6.55;;;25.30;60.40;;;;;;5023464;28;20047;-64
2022/08/11 05:05:31;;;;;;;10.82;5.68;;;25.30;60.20;;;;;;5021244;28;20481;-63
2022/08/11 05:08:34;;;;;;;12.60;5.35;;;25.30;59.90;;;;;;5025616;28;20029;-63
2022/08/11 05:11:24;;;;;;;9.27;4.63;;;25.30;59.80;;;;;;5018966;28;20037;-63
2022/08/11 05:36:46;;;;;;;10.73;4.10;;;25.20;59.80;;;;;;5046990;28;20083;-63
2022/08/11 05:58:37;;;;;;;9.77;4.30;;;25.10;59.80;;;;;;5044681;28;20080;-64
2022/08/11 06:01:03;;;;;;;7.03;3.75;;;25.10;59.70;;;;;;5023100;28;20044;-63
2022/08/11 06:03:29;;;;;;;9.10;4.05;;;25.10;59.80;;;;;;5032899;28;21019;-64
2022/08/11 06:05:56;;;;;;;9.80;4.03;;;25.10;59.80;;;;;;5051210;28;20091;-64
2022/08/11 06:08:34;;;;;;;7.22;3.70;;;25.10;59.80;;;;;;5024587;28;20029;-63
2022/08/11 06:11:02;;;;;;;7.45;3.70;;;25.10;59.80;;;;;;5026258;28;20036;-63
2022/08/11 06:13:28;;;;;;;9.35;4.18;;;25.10;59.80;;;;;;5055126;28;20033;-64
2022/08/11 06:15:54;;;;;;;8.93;4.00;;;25.10;59.80;;;;;;5024424;28;20037;-64
2022/08/11 06:18:20;;;;;;;8.07;3.85;;;25.10;59.80;;;;;;5030981;28;20041;-63
2022/08/11 06:20:51;;;;;;;8.13;3.90;;;25.10;59.80;;;;;;5028718;28;20029;-63
2022/08/11 06:23:19;;;;;;;9.95;3.80;;;25.00;59.70;;;;;;5029448;28;20662;-63
2022/08/11 06:25:44;;;;;;;8.40;3.58;;;25.00;59.70;;;;;;5028050;28;20025;-64
2022/08/11 06:28:10;;;;;;;8.43;3.58;;;25.00;59.80;;;;;;5027660;28;20038;-64
2022/08/11 06:30:39;;;;;;;8.95;3.75;;;25.00;59.70;;;;;;5030629;28;20025;-63
2022/08/11 06:33:16;;;;;;;9.57;4.00;;;25.00;59.70;;;;;;5028148;28;20026;-63
2022/08/11 06:35:56;;;;;;;6.85;3.33;;;25.00;59.70;;;;;;5029018;28;20057;-63
2022/08/11 06:38:59;;;;;;;8.00;3.70;;;25.00;59.70;;;;;;5025857;28;20028;-64
2022/08/11 06:41:39;;;;;;;7.65;3.80;;;25.00;59.70;;;;;;5028196;28;20044;-64
2022/08/11 06:44:15;;;;;;;6.82;3.25;;;25.00;59.70;;;;;;5038240;28;20028;-63
2022/08/11 06:46:42;;;;;;;7.35;3.78;;;25.00;59.70;;;;;;5028147;28;20104;-63
2022/08/11 06:51:57;;;;;;;8.00;3.67;;;25.00;59.80;;;;;;5025619;28;20110;-63
2022/08/11 06:54:23;;;;;;;8.38;3.58;;;25.00;59.80;;;;;;5024592;28;20060;-63
2022/08/11 07:02:34;;;;;;;6.65;3.53;;;25.00;59.80;;;;;;5027111;28;20114;-63
2022/08/11 07:05:02;;;;;;;7.07;3.63;;;25.00;59.90;;;;;;5029019;28;20119;-63
2022/08/11 07:16:29;;;;;;;7.43;3.20;;;25.00;59.80;;;;;;5025812;28;20505;-63
2022/08/11 07:30:11;;;;;;;6.10;3.50;;;24.90;59.80;;;;;;5025166;28;20064;-64
2022/08/11 07:32:58;;;;;;;7.50;3.40;;;25.00;59.80;;;;;;5026572;28;20025;-64
2022/08/11 07:35:32;;;;;;;7.40;3.45;;;25.00;59.90;;;;;;5027663;28;20101;-63
2022/08/11 07:38:00;;;;;;;6.38;3.10;;;24.90;59.70;;;;;;5052306;28;20022;-64
2022/08/11 07:40:26;;;;;;;8.10;3.20;;;24.90;59.70;;;;;;5052055;28;20112;-65
2022/08/11 07:42:52;;;;;;;7.70;3.40;;;24.90;59.60;;;;;;5036082;28;20083;-63
2022/08/11 07:53:30;;;;;;;7.03;3.30;;;24.90;59.60;;;;;;5031679;28;20121;-64
2022/08/11 07:55:57;;;;;;;5.78;3.15;;;24.90;59.50;;;;;;5029276;28;20128;-63
2022/08/11 08:17:56;;;;;;;5.85;3.22;;;25.00;59.40;;;;;;5046297;28;20088;-63
2022/08/11 08:20:26;;;;;;;5.63;3.05;;;25.00;59.50;;;;;;5020278;28;20065;-63
2022/08/11 08:22:55;;;;;;;6.30;3.35;;;25.00;59.60;;;;;;5023168;28;20515;-64
2022/08/11 08:25:24;;;;;;;5.82;2.97;;;25.00;59.60;;;;;;5051552;28;20421;-64
2022/08/11 08:27:50;;;;;;;5.38;3.33;;;25.00;59.50;;;;;;5051366;28;20655;-63
2022/08/11 08:33:01;;;;;;;6.30;3.17;;;25.00;59.60;;;;;;5022280;28;20083;-63
2022/08/11 08:35:29;;;;;;;6.40;3.25;;;25.00;59.70;;;;;;5048855;28;20445;-63
2022/08/11 08:37:56;;;;;;;6.13;3.13;;;25.00;59.70;;;;;;5022787;28;20029;-63
2022/08/11 08:40:21;;;;;;;6.95;3.35;;;25.00;59.70;;;;;;5027134;28;20453;-63
2022/08/11 08:42:53;;;;;;;6.65;3.20;;;25.00;60.00;;;;;;5027368;28;20083;-63
2022/08/11 08:45:19;;;;;;;7.22;3.03;;;25.00;60.30;;;;;;5032968;28;20390;-63
2022/08/11 08:47:51;;;;;;;13.32;3.50;;;25.00;60.90;;;;;;5028430;28;20021;-63
2022/08/11 08:50:21;;;;;;;11.30;3.20;;;25.00;60.80;;;;;;5056605;28;20028;-63
2022/08/11 08:52:58;;;;;;;7.65;3.35;;;25.10;61.00;;;;;;5028029;28;20485;-63
2022/08/11 08:55:24;;;;;;;7.85;3.40;;;25.00;61.00;;;;;;5023514;28;20103;-63
2022/08/11 08:57:51;;;;;;;8.63;3.42;;;25.10;61.00;;;;;;5025051;28;20406;-63
2022/08/11 09:00:17;;;;;;;6.40;3.17;;;25.10;60.90;;;;;;5027608;28;20026;-63
2022/08/11 09:02:43;;;;;;;6.55;3.28;;;25.10;60.90;;;;;;5025704;28;20040;-63
2022/08/11 09:05:09;;;;;;;11.68;4.53;;;25.10;61.10;;;;;;5027799;28;20013;-64
2022/08/11 09:07:35;;;;;;;9.40;4.45;;;25.20;62.00;;;;;;5021904;28;20521;-63
2022/08/11 09:10:01;;;;;;;10.75;4.70;;;25.20;61.70;;;;;;5024410;28;20030;-63
2022/08/11 09:12:31;;;;;;;14.63;5.57;;;25.20;61.40;;;;;;5051494;28;20029;-63
2022/08/11 09:15:02;;;;;;;17.50;6.50;;;25.20;61.40;;;;;;5048214;28;20091;-63
2022/08/11 09:17:35;;;;;;;16.70;6.00;;;25.20;61.50;;;;;;5026537;28;20072;-63
2022/08/11 09:20:10;;;;;;;13.65;5.85;;;25.30;61.50;;;;;;5021062;28;20076;-63
2022/08/11 09:28:12;;;;;;;15.25;6.10;;;25.30;61.30;;;;;;5026228;28;20505;-63
2022/08/11 09:30:41;;;;;;;16.67;6.00;;;25.30;61.60;;;;;;5025545;28;20025;-62
2022/08/11 09:33:08;;;;;;;15.32;5.97;;;25.30;61.40;;;;;;5026039;28;20551;-62
2022/08/11 09:35:38;;;;;;;17.73;5.93;;;25.40;61.50;;;;;;5023425;28;20025;-63
2022/08/11 09:40:49;;;;;;;14.65;6.32;;;25.40;62.10;;;;;;5023065;28;20460;-64
2022/08/11 09:46:00;;;;;;;15.30;6.28;;;25.50;62.00;;;;;;5015842;28;20076;-63
2022/08/11 09:48:28;;;;;;;13.20;5.78;;;25.50;61.60;;;;;;5052515;28;20029;-63
2022/08/11 09:50:54;;;;;;;18.23;6.05;;;25.50;61.70;;;;;;5027826;28;20025;-63
2022/08/11 09:53:20;;;;;;;15.35;5.97;;;25.50;61.60;;;;;;5028546;28;20656;-64
2022/08/11 09:55:46;;;;;;;18.92;6.45;;;25.50;61.50;;;;;;5030624;28;20120;-63
2022/08/11 09:58:12;;;;;;;13.15;5.70;;;25.50;61.50;;;;;;5027413;28;20395;-63
2022/08/11 10:00:39;;;;;;;15.45;5.95;;;25.60;61.70;;;;;;5026793;28;20030;-63
2022/08/11 10:03:24;;;;;;;15.25;5.35;;;25.50;61.60;;;;;;5030711;28;20048;-63
2022/08/11 10:08:39;;;;;;;12.68;5.80;;;25.60;61.60;;;;;;5027895;28;20111;-63
2022/08/11 10:11:06;;;;;;;18.60;6.30;;;25.60;61.70;;;;;;5009165;28;20025;-63
2022/08/11 10:13:33;;;;;;;14.43;5.90;;;25.60;61.60;;;;;;5043347;28;20543;-63
2022/08/11 10:16:03;;;;;;;14.32;5.97;;;25.60;61.60;;;;;;5028235;28;20419;-63
2022/08/11 10:18:51;;;;;;;13.13;5.65;;;25.60;61.50;;;;;;5024873;28;20033;-63
2022/08/11 10:21:35;;;;;;;12.77;5.70;;;25.60;61.50;;;;;;5039321;28;20075;-63
2022/08/11 10:26:57;;;;;;;15.45;5.80;;;25.60;61.60;;;;;;5031051;28;20033;-62
2022/08/11 10:34:57;;;;;;;10.82;5.45;;;25.70;61.60;;;;;;5027993;28;20048;-62
2022/08/11 10:37:23;;;;;;;15.93;6.60;;;25.70;61.70;;;;;;5026421;28;20021;-63
2022/08/11 10:39:49;;;;;;;12.70;5.65;;;25.70;61.60;;;;;;5030336;28;20049;-63
2022/08/11 10:45:03;;;;;;;13.00;6.10;;;25.70;61.70;;;;;;5027157;28;20035;-63
2022/08/11 10:47:34;;;;;;;14.77;6.00;;;25.70;61.70;;;;;;5036165;28;20032;-62
2022/08/11 11:01:04;;;;;;;14.60;5.72;;;25.80;61.90;;;;;;5027223;28;20457;-64
2022/08/11 11:03:30;;;;;;;17.42;5.85;;;25.80;61.70;;;;;;5051653;28;20088;-63
2022/08/11 11:06:16;;;;;;;14.65;6.03;;;25.90;61.80;;;;;;5053245;28;20112;-63
2022/08/11 11:08:53;;;;;;;14.68;6.13;;;25.80;61.90;;;;;;5023567;28;20041;-62
2022/08/11 11:11:20;;;;;;;12.65;5.28;;;25.80;61.70;;;;;;5027977;28;20033;-62
2022/08/11 11:19:18;;;;;;;13.77;6.20;;;25.90;61.90;;;;;;5027544;28;20061;-64
2022/08/11 11:21:43;;;;;;;13.55;5.65;;;25.90;62.00;;;;;;5026194;28;20143;-63
2022/08/11 11:24:21;;;;;;;12.57;5.55;;;25.90;62.00;;;;;;5027865;28;20039;-64
2022/08/11 11:26:59;;;;;;;12.27;5.60;;;26.00;62.10;;;;;;5025522;28;20390;-64
2022/08/11 11:29:54;;;;;;;16.13;5.95;;;26.00;62.10;;;;;;5033295;28;20029;-65
2022/08/11 11:32:58;;;;;;;16.42;5.45;;;26.00;62.20;;;;;;5027128;28;20022;-63
2022/08/11 11:35:32;;;;;;;13.15;5.40;;;26.00;62.10;;;;;;5021226;28;20029;-63
2022/08/11 11:38:00;;;;;;;13.20;5.22;;;26.10;62.30;;;;;;5050475;28;20451;-63
2022/08/11 11:40:25;;;;;;;11.70;5.15;;;26.00;62.40;;;;;;5025983;28;20021;-63
2022/08/11 11:42:52;;;;;;;14.73;6.00;;;26.10;62.40;;;;;;5026862;28;20510;-63
2022/08/11 11:45:19;;;;;;;11.55;5.57;;;26.10;62.50;;;;;;5033488;28;20109;-63
2022/08/11 11:47:52;;;;;;;12.55;5.68;;;26.10;62.60;;;;;;5027737;28;20087;-61
2022/08/11 11:50:33;;;;;;;12.00;5.47;;;26.10;62.70;;;;;;5025684;28;20034;-62
2022/08/11 11:53:00;;;;;;;12.43;5.72;;;26.10;62.50;;;;;;5026667;28;20052;-61
2022/08/11 11:55:25;;;;;;;12.15;5.50;;;26.10;62.40;;;;;;5026670;28;20049;-61
2022/08/11 12:03:20;;;;;;;13.35;5.82;;;26.20;62.50;;;;;;5025009;28;20113;-61
2022/08/11 12:05:46;;;;;;;11.80;5.57;;;26.30;62.50;;;;;;5026479;28;20096;-61
2022/08/11 12:08:14;;;;;;;13.73;5.25;;;26.30;62.40;;;;;;5034339;28;20033;-61
2022/08/11 12:10:44;;;;;;;11.10;5.25;;;26.30;62.30;;;;;;5026368;28;20515;-61
2022/08/11 12:15:56;;;;;;;11.75;5.32;;;26.30;62.30;;;;;;5025056;28;20117;-62
2022/08/11 12:18:21;;;;;;;11.32;5.40;;;26.30;62.10;;;;;;5025569;28;20068;-62
2022/08/11 12:20:47;;;;;;;11.52;5.40;;;26.40;62.10;;;;;;5025093;28;20055;-61
2022/08/11 12:28:42;;;;;;;14.38;5.32;;;26.40;61.80;;;;;;5043721;28;20103;-60
2022/08/11 12:31:10;;;;;;;11.07;4.95;;;26.40;61.80;;;;;;5026163;28;20075;-62
2022/08/11 12:33:37;;;;;;;10.68;5.30;;;26.50;61.80;;;;;;5026010;28;20056;-61
2022/08/11 12:36:03;;;;;;;11.02;5.30;;;26.50;61.70;;;;;;5050752;28;20021;-61
2022/08/11 12:38:28;;;;;;;10.15;4.95;;;26.50;61.60;;;;;;5024591;28;20029;-61
2022/08/11 12:46:26;;;;;;;9.80;4.75;;;26.60;61.30;;;;;;5025549;28;20579;-62
2022/08/11 12:51:57;;;;;;;9.35;4.80;;;26.60;61.20;;;;;;5024403;28;20079;-62
2022/08/11 12:54:35;;;;;;;10.50;5.50;;;26.70;61.10;;;;;;5024866;28;20028;-63
2022/08/11 13:05:19;;;;;;;10.80;4.78;;;26.70;60.80;;;;;;5022742;28;20087;-62
2022/08/11 13:07:45;;;;;;;10.98;5.03;;;26.80;61.00;;;;;;5025522;28;20064;-63
2022/08/11 13:10:13;;;;;;;12.55;5.07;;;26.80;60.90;;;;;;5025361;28;20394;-63
2022/08/11 13:12:48;;;;;;;10.48;5.10;;;26.80;60.70;;;;;;5045176;28;20029;-58
2022/08/11 13:15:15;;;;;;;12.15;4.78;;;26.80;60.70;;;;;;5023954;28;20030;-58
2022/08/11 13:17:41;;;;;;;9.48;4.93;;;26.80;60.80;;;;;;5025414;28;20033;-58
2022/08/11 13:20:08;;;;;;;11.77;4.72;;;26.80;60.80;;;;;;5054596;28;20043;-58
2022/08/11 13:22:35;;;;;;;13.35;5.10;;;26.80;60.70;;;;;;5029171;28;20029;-58
2022/08/11 13:25:02;;;;;;;10.40;5.03;;;26.80;60.60;;;;;;5029103;28;20493;-58
2022/08/11 13:27:27;;;;;;;10.10;4.57;;;26.80;60.50;;;;;;5029981;28;20025;-58
2022/08/11 13:31:09;;;;;;;10.57;4.55;;;26.80;60.30;;;;;;5056806;28;20041;-58
2022/08/11 13:32:39;;;;;;;10.07;4.47;;;26.80;60.20;;;;;;5026822;28;20021;-58
2022/08/11 13:35:05;;;;;;;9.32;4.70;;;26.80;60.10;;;;;;5029161;28;20026;-58
2022/08/11 13:37:33;;;;;;;10.60;4.50;;;26.80;60.20;;;;;;5053970;28;20029;-58
2022/08/11 13:40:00;;;;;;;11.82;4.80;;;26.80;60.20;;;;;;5025608;28;20029;-58
2022/08/11 13:42:26;;;;;;;11.35;5.28;;;26.80;60.40;;;;;;5036738;28;20506;-58
2022/08/11 13:44:52;;;;;;;14.93;5.13;;;26.80;60.00;;;;;;5034837;28;20029;-59
2022/08/11 13:47:21;;;;;;;14.55;5.50;;;26.80;59.60;;;;;;5050932;28;20398;-58
2022/08/11 13:49:46;;;;;;;11.70;4.93;;;26.80;59.10;;;;;;5009220;28;20038;-59
2022/08/11 13:52:13;;;;;;;12.00;5.00;;;26.80;59.00;;;;;;5028076;28;20029;-59
2022/08/11 13:54:40;;;;;;;11.55;5.07;;;26.90;59.20;;;;;;5028660;28;20067;-57
2022/08/11 13:57:07;;;;;;;12.05;5.50;;;26.90;59.00;;;;;;5029526;28;20044;-57
2022/08/11 13:59:32;;;;;;;14.13;5.35;;;26.90;57.70;;;;;;5051132;28;20026;-57
2022/08/11 14:02:02;;;;;;;13.27;5.18;;;26.90;57.30;;;;;;5029554;28;20025;-57
2022/08/11 14:04:32;;;;;;;13.25;5.70;;;26.90;56.90;;;;;;5031082;28;20152;-58
2022/08/11 14:06:59;;;;;;;14.30;6.00;;;26.90;56.40;;;;;;5027672;28;20030;-58
2022/08/11 14:09:31;;;;;;;11.70;5.40;;;26.90;56.10;;;;;;5026877;28;20048;-58
2022/08/11 14:14:44;;;;;;;14.15;5.30;;;26.90;56.10;;;;;;5045683;28;20044;-59
2022/08/11 14:17:10;;;;;;;10.23;5.10;;;27.00;56.10;;;;;;5025993;28;20490;-58
2022/08/11 14:19:38;;;;;;;15.13;5.70;;;27.00;55.50;;;;;;5027826;28;20052;-58
2022/08/11 14:22:07;;;;;;;10.10;4.75;;;27.00;55.90;;;;;;5027728;28;20029;-58
2022/08/11 14:24:39;;;;;;;12.40;5.15;;;27.00;56.70;;;;;;5039765;28;20056;-58
2022/08/11 14:27:10;;;;;;;13.25;4.95;;;27.00;56.50;;;;;;5051341;28;20034;-58
2022/08/11 14:29:37;;;;;;;12.95;5.43;;;27.00;56.40;;;;;;5026355;28;20045;-58
2022/08/11 14:32:05;;;;;;;13.25;5.47;;;27.10;56.00;;;;;;5053750;28;22091;-58
2022/08/11 14:34:33;;;;;;;14.07;5.13;;;27.10;55.80;;;;;;5005923;28;20021;-58
2022/08/11 14:37:01;;;;;;;11.65;5.43;;;27.00;55.30;;;;;;5008058;28;20029;-58
2022/08/11 14:39:28;;;;;;;12.88;5.90;;;27.10;55.70;;;;;;5012354;28;20033;-58
2022/08/11 14:47:34;;;;;;;10.70;5.00;;;27.10;56.20;;;;;;5012585;28;20044;-58
2022/08/11 14:50:01;;;;;;;15.13;5.45;;;27.10;56.20;;;;;;5026990;28;20043;-58
2022/08/11 14:52:27;;;;;;;15.23;5.78;;;27.10;56.20;;;;;;5030885;28;20022;-58
2022/08/11 14:57:39;;;;;;;16.37;5.37;;;27.10;56.20;;;;;;5021705;28;20031;-58
2022/08/11 15:00:07;;;;;;;15.90;5.40;;;27.10;56.20;;;;;;5010205;28;20017;-59
2022/08/11 15:05:22;;;;;;;18.65;5.75;;;27.10;56.30;;;;;;5025435;28;20532;-58
2022/08/11 15:07:48;;;;;;;11.60;5.25;;;27.10;56.60;;;;;;5056448;28;20021;-58
2022/08/11 15:10:15;;;;;;;11.60;4.80;;;27.10;56.80;;;;;;5024597;28;20431;-58
2022/08/11 15:12:41;;;;;;;15.02;5.50;;;27.10;56.40;;;;;;5021819;28;20026;-59
2022/08/11 15:17:51;;;;;;;;;;;27.10;56.60;;;;;;5027437;28;20721;-58
2022/08/11 15:25:50;;;;;;;15.38;5.53;;;27.10;57.60;;;;;;5024062;28;20083;-57
2022/08/11 15:37:25;;;;;;;15.50;5.07;;;27.00;57.90;;;;;;5025453;28;20040;-57
2022/08/11 15:39:20;;;;;;;19.77;5.47;;;27.00;58.10;;;;;;5021746;28;20032;-57
2022/08/11 15:47:41;;;;;;;12.77;5.07;;;27.00;57.40;;;;;;5010276;28;20088;-58
2022/08/11 15:50:07;;;;;;;17.70;5.60;;;27.00;57.20;;;;;;5025943;28;20132;-57
2022/08/11 15:52:36;;;;;;;16.20;5.45;;;27.00;57.20;;;;;;5008558;28;20056;-58
2022/08/11 15:55:04;;;;;;;16.40;5.40;;;27.00;57.30;;;;;;5021637;28;20038;-58
2022/08/11 16:05:43;;;;;;;14.35;4.80;;;27.00;57.50;;;;;;5023989;28;20033;-57
2022/08/11 16:08:09;;;;;;;14.63;4.80;;;27.00;57.40;;;;;;5024792;28;20049;-58
2022/08/11 16:10:35;;;;;;;13.55;5.32;;;27.00;57.40;;;;;;5052509;28;20026;-58
2022/08/11 16:18:24;;;;;;;15.68;5.63;;;27.10;57.30;;;;;;5023662;28;20040;-58
2022/08/11 16:20:50;;;;;;;14.25;5.45;;;27.10;56.50;;;;;;5024395;28;20108;-57
2022/08/11 16:23:16;;;;;;;12.15;5.25;;;27.10;56.20;;;;;;5050633;28;20025;-57
2022/08/11 16:25:42;;;;;;;14.93;5.35;;;27.10;57.20;;;;;;5023563;28;20088;-58
2022/08/11 16:28:07;;;;;;;13.88;5.05;;;27.10;56.80;;;;;;5008889;28;20032;-57
2022/08/11 16:30:34;;;;;;;15.43;5.47;;;27.00;57.70;;;;;;5025638;28;20121;-57
2022/08/11 16:33:03;;;;;;;13.10;4.35;;;27.00;56.20;;;;;;5053178;28;20025;-57
2022/08/11 16:40:57;;;;;;;14.23;5.10;;;27.00;56.10;;;;;;5025980;28;20417;-57
2022/08/11 16:48:54;;;;;;;14.68;5.30;;;27.00;55.30;;;;;;5025129;28;20584;-57
2022/08/11 16:51:20;;;;;;;15.38;5.10;;;27.00;55.20;;;;;;5024730;28;20021;-58
2022/08/11 16:53:47;;;;;;;12.50;5.20;;;27.00;55.00;;;;;;5025542;28;20037;-57
2022/08/11 16:56:17;;;;;;;12.88;4.93;;;27.00;55.00;;;;;;5024724;28;20092;-58
2022/08/11 17:01:28;;;;;;;14.88;4.72;;;27.00;54.80;;;;;;5020723;28;20090;-58
2022/08/11 17:14:58;;;;;;;19.55;5.90;;;27.10;53.00;;;;;;5042761;28;20129;-57
2022/08/11 17:17:31;;;;;;;15.63;5.70;;;27.00;53.00;;;;;;5038527;28;20025;-57
2022/08/11 17:20:00;;;;;;;18.55;5.03;;;27.10;53.40;;;;;;5021753;28;20017;-57
2022/08/11 17:25:10;;;;;;;14.23;4.90;;;27.10;52.30;;;;;;5036364;28;20036;-57
2022/08/11 17:27:36;;;;;;;14.13;4.68;;;27.00;52.60;;;;;;5006355;28;20288;-57
2022/08/11 17:30:04;;;;;;;15.35;5.65;;;27.10;52.80;;;;;;5007025;28;20044;-57
2022/08/11 17:35:33;;;;;;;14.00;5.18;;;27.00;54.10;;;;;;5021229;28;20049;-57
2022/08/11 17:38:09;;;;;;;16.52;5.07;;;26.90;54.30;;;;;;5022773;28;20029;-57
2022/08/11 17:49:06;;;;;;;17.17;5.85;;;26.80;55.30;;;;;;5020955;28;20049;-57
2022/08/11 17:59:51;;;;;;;15.40;5.53;;;26.70;55.50;;;;;;5019661;28;20095;-62
2022/08/11 18:05:06;;;;;;;16.83;5.57;;;26.60;55.80;;;;;;5022644;28;20040;-62
